Time;durP1;ratioP1;P1;durP2;ratioP2;P2;SDS_P1;SDS_P2;PMS_P1;PMS_P2;Temp;Humidity;BMP_temperature;BMP_pressure;BME280_temperature;BME280_humidity;BME280_pressure;Samples;Min_cycle;Max_cycle;Signal;HPM_P1;HPM_P2
2022/03/04 00:01:17;;;;;;;5.50;3.25;;;;;;;7.26;100.00;100941.22;4986817;28;20116;-60
2022/03/04 00:03:43;;;;;;;11.45;4.30;;;;;;;7.25;100.00;100935.09;4989068;28;20026;-58
2022/03/04 00:06:08;;;;;;;9.77;3.75;;;;;;;7.23;100.00;100937.09;4986591;28;20038;-60
2022/03/04 00:08:34;;;;;;;6.93;2.13;;;;;;;7.24;100.00;100941.38;4987229;28;20037;-61
2022/03/04 00:10:59;;;;;;;3.63;2.67;;;;;;;7.24;100.00;100943.19;4983284;28;20034;-61
2022/03/04 00:13:25;;;;;;;10.45;2.35;;;;;;;7.25;100.00;100947.47;4988914;28;20468;-62
2022/03/04 00:15:50;;;;;;;12.07;3.67;;;;;;;7.22;100.00;100946.78;4990789;28;20029;-62
2022/03/04 00:18:16;;;;;;;4.78;2.53;;;;;;;7.21;100.00;100947.78;4987656;28;20117;-60
2022/03/04 00:20:42;;;;;;;9.40;3.10;;;;;;;7.22;100.00;100948.63;4979597;28;20046;-60
2022/03/04 00:23:07;;;;;;;6.05;2.80;;;;;;;7.21;100.00;100942.50;4986678;28;20533;-60
2022/03/04 00:25:33;;;;;;;6.10;3.40;;;;;;;7.24;100.00;100948.47;4989721;28;20073;-62
2022/03/04 00:27:58;;;;;;;4.10;3.70;;;;;;;7.21;100.00;100937.25;4986530;28;20493;-63
2022/03/04 00:30:24;;;;;;;6.40;3.28;;;;;;;7.21;100.00;100939.88;4987596;28;20567;-63
2022/03/04 00:32:49;;;;;;;9.48;2.92;;;;;;;7.20;100.00;100938.25;4984893;28;20036;-62
2022/03/04 00:35:15;;;;;;;11.98;4.38;;;;;;;7.20;100.00;100930.31;4988207;28;20435;-62
2022/03/04 00:37:40;;;;;;;18.83;4.50;;;;;;;7.19;100.00;100936.56;4989083;28;20088;-63
2022/03/04 00:40:07;;;;;;;4.40;3.17;;;;;;;7.19;100.00;100933.94;4986022;28;20070;-60
2022/03/04 00:42:33;;;;;;;9.57;4.32;;;;;;;7.18;100.00;100934.94;4985019;28;20568;-62
2022/03/04 00:44:58;;;;;;;6.95;2.60;;;;;;;7.17;100.00;100938.53;4988752;28;20117;-62
2022/03/04 00:47:23;;;;;;;13.43;3.95;;;;;;;7.17;100.00;100942.97;4986774;28;20400;-59
2022/03/04 00:49:49;;;;;;;3.40;3.10;;;;;;;7.15;100.00;100935.25;4990273;28;20568;-57
2022/03/04 00:52:14;;;;;;;7.40;3.63;;;;;;;7.12;100.00;100940.81;4986073;28;20081;-62
2022/03/04 00:54:40;;;;;;;8.60;3.70;;;;;;;7.12;100.00;100935.53;4985289;28;20866;-63
2022/03/04 00:57:05;;;;;;;5.97;2.90;;;;;;;7.11;100.00;100936.53;4989802;28;20384;-62
2022/03/04 00:59:31;;;;;;;9.80;4.35;;;;;;;7.10;100.00;100932.25;4992020;28;20515;-60
2022/03/04 01:01:56;;;;;;;6.78;3.67;;;;;;;7.10;100.00;100937.53;4989176;28;20037;-62
2022/03/04 01:04:22;;;;;;;13.20;4.88;;;;;;;7.09;100.00;100935.03;4986821;28;20039;-61
2022/03/04 01:06:47;;;;;;;4.05;2.78;;;;;;;7.07;100.00;100926.44;4986313;28;20031;-61
2022/03/04 01:09:13;;;;;;;5.47;2.95;;;;;;;7.05;100.00;100934.53;4991324;28;20429;-63
2022/03/04 01:11:38;;;;;;;9.95;3.22;;;;;;;7.04;100.00;100937.31;4990114;28;20490;-60
2022/03/04 01:14:06;;;;;;;7.53;2.75;;;;;;;7.02;100.00;100926.91;4990228;28;20427;-60
2022/03/04 01:16:31;;;;;;;7.20;3.08;;;;;;;7.01;100.00;100938.44;4989360;28;20495;-60
2022/03/04 01:18:56;;;;;;;7.57;3.50;;;;;;;7.02;100.00;100937.47;4989938;28;20070;-62
2022/03/04 01:21:22;;;;;;;6.60;2.85;;;;;;;7.02;100.00;100932.19;4990371;28;20046;-63
2022/03/04 01:23:47;;;;;;;7.40;2.90;;;;;;;7.01;100.00;100935.81;4999838;28;20395;-62
2022/03/04 01:26:13;;;;;;;7.05;3.25;;;;;;;7.01;100.00;100938.44;4988978;28;20041;-61
2022/03/04 01:28:38;;;;;;;7.13;3.35;;;;;;;7.00;100.00;100939.44;4996030;28;20472;-62
2022/03/04 01:31:04;;;;;;;11.32;3.65;;;;;;;7.01;100.00;100941.09;4990729;28;20026;-61
2022/03/04 01:33:29;;;;;;;8.45;4.00;;;;;;;7.03;100.00;100935.69;4989375;28;20039;-61
2022/03/04 01:35:54;;;;;;;8.32;3.38;;;;;;;7.02;100.00;100937.47;4992854;28;20054;-62
2022/03/04 01:38:20;;;;;;;8.70;3.65;;;;;;;7.02;100.00;100932.19;4994513;28;20056;-62
2022/03/04 01:40:46;;;;;;;3.60;2.75;;;;;;;7.02;100.00;100932.19;4992979;28;20177;-61
2022/03/04 01:43:11;;;;;;;3.67;3.15;;;;;;;7.01;100.00;100930.53;4989293;28;20034;-62
2022/03/04 01:45:37;;;;;;;6.15;3.40;;;;;;;7.00;100.00;100926.25;4999723;28;20026;-60
2022/03/04 01:48:03;;;;;;;20.60;4.45;;;;;;;6.98;100.00;100934.31;4990288;28;20033;-60
2022/03/04 01:50:28;;;;;;;9.77;3.20;;;;;;;6.97;100.00;100937.13;4990258;28;20042;-58
2022/03/04 01:52:54;;;;;;;11.93;3.60;;;;;;;6.97;100.00;100937.13;4989401;28;20034;-59
2022/03/04 01:55:20;;;;;;;5.97;2.70;;;;;;;6.95;100.00;100939.91;4992101;28;20033;-59
2022/03/04 01:57:46;;;;;;;9.50;3.42;;;;;;;6.97;100.00;100939.75;4991097;28;20117;-61
2022/03/04 02:00:13;;;;;;;8.88;3.53;;;;;;;6.97;100.00;100934.50;4994938;28;20073;-61
2022/03/04 02:02:40;;;;;;;5.85;3.35;;;;;;;6.95;100.00;100926.72;4990028;28;20562;-61
2022/03/04 02:05:05;;;;;;;4.18;3.78;;;;;;;6.93;100.00;100927.88;4980296;28;20124;-61
2022/03/04 02:07:30;;;;;;;7.55;3.70;;;;;;;6.92;100.00;100934.13;4986543;28;20109;-60
2022/03/04 02:09:56;;;;;;;6.28;2.95;;;;;;;6.93;100.00;100928.69;4989985;28;20091;-62
2022/03/04 02:12:21;;;;;;;4.88;3.40;;;;;;;6.95;100.00;100933.81;4988140;28;20591;-63
2022/03/04 02:14:47;;;;;;;8.18;3.30;;;;;;;6.94;100.00;100934.78;4989962;28;20080;-61
2022/03/04 02:17:12;;;;;;;7.57;4.10;;;;;;;6.96;100.00;100930.19;4989203;28;20054;-63
2022/03/04 02:19:37;;;;;;;8.75;3.38;;;;;;;6.96;100.00;100931.00;4992621;28;20030;-63
2022/03/04 02:22:04;;;;;;;8.50;3.97;;;;;;;6.97;100.00;100937.94;4988745;28;20430;-63
2022/03/04 02:24:32;;;;;;;6.18;3.78;;;;;;;6.98;100.00;100938.78;4990044;28;20092;-63
2022/03/04 02:27:00;;;;;;;8.30;3.72;;;;;;;6.98;100.00;100930.88;4992281;28;20033;-62
2022/03/04 02:29:26;;;;;;;6.57;4.00;;;;;;;7.00;100.00;100936.81;4991256;28;20505;-61
2022/03/04 02:31:52;;;;;;;6.05;3.40;;;;;;;7.00;100.00;100931.53;4990963;28;20128;-63
2022/03/04 02:34:18;;;;;;;8.95;3.95;;;;;;;7.01;100.00;100940.28;4987663;28;20037;-63
2022/03/04 02:36:44;;;;;;;9.18;4.15;;;;;;;7.01;100.00;100943.72;4990898;28;20045;-63
2022/03/04 02:39:10;;;;;;;7.93;4.25;;;;;;;7.02;100.00;100942.72;4988255;28;20121;-61
2022/03/04 02:41:36;;;;;;;10.82;4.22;;;;;;;7.02;100.00;100945.38;4988318;28;20035;-61
2022/03/04 02:44:11;;;;;;;10.30;4.38;;;;;;;7.05;100.00;100942.44;4996914;28;20041;-58
2022/03/04 02:46:37;;;;;;;13.48;4.50;;;;;;;7.04;100.00;100938.13;4986493;28;20460;-63
2022/03/04 02:49:05;;;;;;;9.05;3.53;;;;;;;7.05;100.00;100937.16;4985272;28;20068;-63
2022/03/04 02:51:30;;;;;;;7.43;4.55;;;;;;;7.04;100.00;100938.13;4985243;28;20068;-63
2022/03/04 02:53:56;;;;;;;9.10;4.28;;;;;;;7.05;100.00;100938.97;4983830;28;20029;-62
2022/03/04 02:56:21;;;;;;;7.35;4.28;;;;;;;7.04;100.00;100937.31;4981438;28;20026;-61
2022/03/04 02:58:47;;;;;;;8.10;3.78;;;;;;;7.03;100.00;100931.22;4985401;28;21341;-60
2022/03/04 03:01:12;;;;;;;5.43;3.38;;;;;;;7.03;100.00;100936.50;4983783;28;20468;-63
2022/03/04 03:03:38;;;;;;;13.93;5.30;;;;;;;7.03;100.00;100939.13;4980651;28;20693;-62
2022/03/04 03:06:04;;;;;;;8.52;4.78;;;;;;;7.03;100.00;100938.31;5004447;28;20032;-62
2022/03/04 03:08:30;;;;;;;4.80;3.00;;;;;;;7.02;100.00;100940.09;4990001;28;20157;-62
2022/03/04 03:10:55;;;;;;;9.35;2.55;;;;;;;7.03;100.00;100941.75;4984572;28;20519;-61
2022/03/04 03:13:22;;;;;;;19.38;5.53;;;;;;;7.04;100.00;100943.41;4987307;28;20026;-63
2022/03/04 03:15:47;;;;;;;8.05;3.08;;;;;;;7.05;100.00;100947.72;4988292;28;20492;-60
2022/03/04 03:18:13;;;;;;;5.47;2.85;;;;;;;7.06;100.00;100943.25;4991810;28;20130;-62
2022/03/04 03:20:38;;;;;;;9.80;2.90;;;;;;;7.05;100.00;100945.09;4987312;28;20445;-62
2022/03/04 03:23:04;;;;;;;4.00;2.20;;;;;;;7.04;100.00;100943.41;4990480;28;20022;-62
2022/03/04 03:25:29;;;;;;;8.07;2.78;;;;;;;7.03;100.00;100944.41;4984534;28;20066;-60
2022/03/04 03:27:55;;;;;;;3.35;2.35;;;;;;;7.03;100.00;100947.03;4989528;28;20064;-62
2022/03/04 03:30:20;;;;;;;9.73;4.15;;;;;;;7.02;100.00;100947.19;4986490;28;20045;-62
2022/03/04 03:32:46;;;;;;;7.38;3.58;;;;;;;7.03;100.00;100948.84;4993742;28;20510;-60
2022/03/04 03:35:11;;;;;;;7.13;3.90;;;;;;;7.02;100.00;100949.81;4983647;28;20034;-62
2022/03/04 03:37:37;;;;;;;14.80;4.13;;;;;;;7.03;100.00;100951.50;4991990;28;20058;-62
2022/03/04 03:40:05;;;;;;;5.22;3.40;;;;;;;7.02;100.00;100950.63;4990047;28;20034;-62
2022/03/04 03:42:30;;;;;;;5.30;2.75;;;;;;;7.01;100.00;100951.63;4988720;28;20463;-61
2022/03/04 03:44:56;;;;;;;9.48;2.17;;;;;;;6.99;100.00;100954.41;4983707;28;20042;-61
2022/03/04 03:47:21;;;;;;;4.57;2.30;;;;;;;7.01;100.00;100964.00;4989087;28;20039;-61
2022/03/04 03:49:46;;;;;;;7.32;3.35;;;;;;;7.00;100.00;100960.53;4988721;28;20077;-59
2022/03/04 03:52:12;;;;;;;4.65;3.90;;;;;;;7.01;100.00;100959.53;4984709;28;20032;-61
2022/03/04 03:54:37;;;;;;;7.72;2.85;;;;;;;7.02;100.00;100966.47;4986566;28;20125;-63
2022/03/04 03:57:03;;;;;;;8.02;4.07;;;;;;;7.02;100.00;100955.09;4988349;28;20026;-62
2022/03/04 03:59:29;;;;;;;5.75;3.10;;;;;;;7.01;100.00;100954.28;4988348;28;20111;-62
2022/03/04 04:01:54;;;;;;;5.18;2.53;;;;;;;7.00;100.00;100950.00;4990473;28;20296;-59
2022/03/04 04:04:20;;;;;;;11.30;4.05;;;;;;;6.99;100.00;100948.31;4989421;28;20030;-59
2022/03/04 04:06:45;;;;;;;5.07;3.03;;;;;;;6.98;100.00;100950.13;4991059;28;20081;-63
2022/03/04 04:09:11;;;;;;;4.78;3.15;;;;;;;6.98;100.00;100949.31;4988517;28;20533;-62
2022/03/04 04:11:38;;;;;;;7.00;3.80;;;;;;;7.00;100.00;100957.91;4986317;28;20391;-62
2022/03/04 04:14:04;;;;;;;8.20;3.90;;;;;;;6.99;100.00;100954.41;4999490;28;20049;-60
2022/03/04 04:16:30;;;;;;;9.02;3.67;;;;;;;6.99;100.00;100957.06;4983542;28;20050;-60
2022/03/04 04:18:56;;;;;;;5.18;3.30;;;;;;;6.99;100.00;100967.59;4989154;28;20030;-63
2022/03/04 04:21:22;;;;;;;7.45;4.18;;;;;;;6.99;100.00;100962.31;4982408;28;20023;-55
2022/03/04 04:23:48;;;;;;;6.13;4.40;;;;;;;6.98;100.00;100965.13;4996722;28;20291;-59
2022/03/04 04:26:13;;;;;;;7.78;4.15;;;;;;;7.01;100.00;100969.28;4986080;28;20030;-59
2022/03/04 04:28:38;;;;;;;3.13;2.85;;;;;;;7.01;100.00;100974.53;4988470;28;20081;-60
2022/03/04 04:31:04;;;;;;;8.32;3.67;;;;;;;7.01;100.00;100964.00;4999250;28;20451;-61
2022/03/04 04:33:31;;;;;;;4.65;2.85;;;;;;;6.99;100.00;100972.88;4986253;28;20042;-62
2022/03/04 04:35:56;;;;;;;4.55;2.92;;;;;;;6.97;100.00;100972.22;4981729;28;20038;-63
2022/03/04 04:38:22;;;;;;;6.18;3.20;;;;;;;6.91;100.00;100985.19;4991916;28;20038;-62
2022/03/04 04:40:47;;;;;;;4.63;2.90;;;;;;;6.76;100.00;100984.91;4988428;28;20050;-60
2022/03/04 04:43:12;;;;;;;2.22;1.80;;;;;;;6.60;100.00;100988.25;4984922;28;20030;-56
2022/03/04 04:45:38;;;;;;;2.45;2.25;;;;;;;6.35;100.00;100984.59;4986208;28;20085;-58
2022/03/04 04:48:04;;;;;;;2.10;1.85;;;;;;;6.18;100.00;100985.44;4989321;28;20041;-57
2022/03/04 04:50:29;;;;;;;2.20;2.00;;;;;;;6.04;100.00;100987.59;4992399;28;20065;-57
2022/03/04 04:52:54;;;;;;;1.50;1.33;;;;;;;6.01;100.00;100993.13;4988273;28;20169;-58
2022/03/04 04:55:20;;;;;;;0.95;0.95;;;;;;;5.90;100.00;100991.50;4985529;28;20054;-59
2022/03/04 04:57:45;;;;;;;1.10;1.00;;;;;;;5.74;100.00;100995.78;4982237;28;20073;-62
2022/03/04 05:00:11;;;;;;;0.80;0.80;;;;;;;5.71;100.00;100996.91;4988971;28;20472;-59
2022/03/04 05:02:36;;;;;;;0.65;0.52;;;;;;;5.68;100.00;101002.47;4986398;28;20385;-58
2022/03/04 05:05:03;;;;;;;1.50;1.40;;;;;;;5.71;100.00;101010.06;4986164;28;20058;-60
2022/03/04 05:07:29;;;;;;;0.32;0.32;;;;;;;5.73;100.00;101010.75;4981090;28;20115;-61
2022/03/04 05:09:54;;;;;;;0.80;0.80;;;;;;;5.65;100.00;101013.25;4983822;28;20494;-63
2022/03/04 05:12:19;;;;;;;0.60;0.40;;;;;;;5.61;100.00;101017.16;4987505;28;20030;-62
2022/03/04 05:14:45;;;;;;;0.95;0.57;;;;;;;5.59;100.00;101017.31;4986779;28;20085;-63
2022/03/04 05:17:10;;;;;;;0.65;0.65;;;;;;;5.61;100.00;101017.16;4990737;28;20026;-62
2022/03/04 05:19:35;;;;;;;0.98;0.98;;;;;;;5.55;100.00;101023.00;4986148;28;20465;-63
2022/03/04 05:22:01;;;;;;;0.32;0.32;;;;;;;5.46;100.00;101027.34;4990765;28;20042;-59
2022/03/04 05:24:26;;;;;;;1.63;1.52;;;;;;;5.43;100.00;101028.44;4982019;28;20131;-62
2022/03/04 05:26:51;;;;;;;0.95;0.90;;;;;;;5.45;100.00;101029.13;4990896;28;20446;-61
2022/03/04 05:29:17;;;;;;;0.80;0.80;;;;;;;5.39;100.00;101037.59;4985939;28;20125;-61
2022/03/04 05:31:42;;;;;;;0.90;0.90;;;;;;;5.31;100.00;101037.47;4985754;28;20510;-60
2022/03/04 05:34:08;;;;;;;0.70;0.70;;;;;;;5.28;100.00;101039.56;4984453;28;20554;-64
2022/03/04 05:36:35;;;;;;;0.52;0.52;;;;;;;5.25;100.00;101049.41;4998919;28;20075;-62
2022/03/04 05:39:01;;;;;;;0.63;0.63;;;;;;;5.18;100.00;101048.31;4987099;28;20053;-63
2022/03/04 05:41:27;;;;;;;1.05;1.00;;;;;;;5.17;100.00;101062.44;4990872;28;20035;-62
2022/03/04 05:43:52;;;;;;;0.47;0.47;;;;;;;5.17;100.00;101053.72;4990618;28;20037;-62
2022/03/04 05:46:18;;;;;;;0.90;0.90;;;;;;;5.12;100.00;101056.78;4988968;28;20033;-58
2022/03/04 05:48:44;;;;;;;2.92;1.38;;;;;;;5.10;100.00;101057.88;4989559;28;20030;-63
2022/03/04 05:51:10;;;;;;;1.42;0.85;;;;;;;5.08;100.00;101062.44;4989681;28;20113;-63
2022/03/04 05:53:36;;;;;;;2.17;1.48;;;;;;;4.97;100.00;101056.38;4990675;28;20125;-62
2022/03/04 05:56:07;;;;;;;1.80;1.70;;;;;;;4.85;100.00;101061.91;4991704;28;20081;-58
2022/03/04 05:58:34;;;;;;;0.77;0.77;;;;;;;4.80;100.00;101059.69;4988662;28;20031;-61
2022/03/04 06:00:59;;;;;;;1.20;1.20;;;;;;;4.80;100.00;101060.56;4990305;28;20411;-63
2022/03/04 06:03:25;;;;;;;3.78;1.27;;;;;;;4.81;100.00;101056.13;5000584;28;20088;-60
2022/03/04 06:05:51;;;;;;;1.58;1.45;;;;;;;4.82;100.00;101058.59;4989609;28;20039;-59
2022/03/04 06:08:17;;;;;;;2.70;1.83;;;;;;;4.86;100.00;101067.03;4989412;28;20076;-59
2022/03/04 06:10:42;;;;;;;2.03;1.90;;;;;;;4.89;100.00;101072.00;4989213;28;20030;-61
2022/03/04 06:13:08;;;;;;;6.22;3.10;;;;;;;4.88;100.00;101074.75;4998265;28;20036;-62
2022/03/04 06:15:33;;;;;;;2.97;1.90;;;;;;;4.81;100.00;101077.97;4993129;28;20118;-61
2022/03/04 06:17:59;;;;;;;2.53;2.28;;;;;;;4.80;100.00;101083.34;4995010;28;20026;-60
2022/03/04 06:20:25;;;;;;;1.83;1.73;;;;;;;4.83;100.00;101085.72;4988044;28;20488;-62
2022/03/04 06:22:50;;;;;;;1.77;1.42;;;;;;;4.80;100.00;101081.56;4993703;28;20030;-61
2022/03/04 06:25:15;;;;;;;5.70;1.88;;;;;;;4.76;100.00;101084.59;4989768;28;20044;-62
2022/03/04 06:27:58;;;;;;;1.77;1.67;;;;;;;4.75;100.00;101089.03;4992989;28;20065;-63
2022/03/04 06:30:26;;;;;;;2.42;2.22;;;;;;;4.74;100.00;101097.03;4988779;28;20160;-60
2022/03/04 06:33:29;;;;;;;3.80;2.42;;;;;;;4.74;100.00;101100.50;4989681;28;20037;-63
2022/03/04 06:35:39;;;;;;;1.58;1.48;;;;;;;4.74;100.00;101104.94;4985641;28;20046;-63
2022/03/04 06:38:05;;;;;;;1.70;1.60;;;;;;;4.72;100.00;101109.47;4983309;28;20027;-62
2022/03/04 06:40:30;;;;;;;1.88;1.77;;;;;;;4.68;100.00;101110.75;4989491;28;20475;-62
2022/03/04 06:42:56;;;;;;;2.03;1.92;;;;;;;4.68;100.00;101110.75;4992349;28;20037;-62
2022/03/04 06:45:21;;;;;;;2.17;1.98;;;;;;;4.65;100.00;101109.22;4987380;28;20034;-62
2022/03/04 06:47:46;;;;;;;2.63;2.35;;;;;;;4.64;100.00;101118.03;4994110;28;20029;-62
2022/03/04 06:50:12;;;;;;;2.33;2.13;;;;;;;4.65;100.00;101124.16;4986691;28;20484;-60
2022/03/04 06:52:37;;;;;;;2.10;1.95;;;;;;;4.67;100.00;101116.94;4988424;28;20037;-59
2022/03/04 06:55:04;;;;;;;3.47;2.08;;;;;;;4.65;100.00;101118.91;4988182;28;20034;-62
2022/03/04 06:57:29;;;;;;;1.60;1.50;;;;;;;4.66;100.00;101115.28;4990166;28;20038;-61
2022/03/04 06:59:55;;;;;;;2.60;2.03;;;;;;;4.65;100.00;101124.97;4989958;28;20037;-61
2022/03/04 07:02:20;;;;;;;2.90;2.35;;;;;;;4.66;100.00;101131.06;5002916;28;20049;-64
2022/03/04 07:04:46;;;;;;;3.25;2.95;;;;;;;4.64;100.00;101133.81;4988052;28;20030;-61
2022/03/04 07:07:12;;;;;;;4.00;2.60;;;;;;;4.66;100.00;101125.81;4994859;28;20110;-63
2022/03/04 07:09:37;;;;;;;3.08;2.88;;;;;;;4.64;100.00;101130.34;4990607;28;20865;-63
2022/03/04 07:12:03;;;;;;;5.57;3.85;;;;;;;4.67;100.00;101130.06;4992479;28;20037;-63
2022/03/04 07:14:28;;;;;;;2.95;2.65;;;;;;;4.69;100.00;101141.28;4982992;28;20069;-62
2022/03/04 07:16:53;;;;;;;3.75;3.03;;;;;;;4.67;100.00;101137.97;4983760;28;20026;-62
2022/03/04 07:19:19;;;;;;;2.80;2.60;;;;;;;4.65;100.00;101143.38;4978171;28;20479;-61
2022/03/04 07:21:44;;;;;;;5.63;1.88;;;;;;;4.67;100.00;101151.91;4988176;28;20117;-62
2022/03/04 07:24:09;;;;;;;2.45;2.25;;;;;;;4.68;100.00;101144.88;4980807;28;20112;-60
2022/03/04 07:26:35;;;;;;;6.05;3.22;;;;;;;4.63;100.00;101150.53;4985847;28;20146;-62
2022/03/04 07:29:00;;;;;;;2.45;2.25;;;;;;;4.61;100.00;101149.84;4982042;28;20030;-57
2022/03/04 07:31:25;;;;;;;2.15;1.95;;;;;;;4.61;100.00;101154.28;4984738;28;20080;-62
2022/03/04 07:33:51;;;;;;;3.35;3.15;;;;;;;4.57;100.00;101145.84;4984088;28;20026;-63
2022/03/04 07:36:16;;;;;;;3.00;2.80;;;;;;;4.55;100.00;101151.22;4978600;28;20779;-59
2022/03/04 07:38:44;;;;;;;2.78;2.55;;;;;;;4.58;100.00;101160.63;4977586;28;20026;-61
2022/03/04 07:41:09;;;;;;;4.00;2.80;;;;;;;4.60;100.00;101169.22;4974194;28;20733;-61
2022/03/04 07:43:35;;;;;;;1.80;1.77;;;;;;;4.58;100.00;101169.31;4974303;28;20112;-60
2022/03/04 07:46:00;;;;;;;1.83;1.73;;;;;;;4.60;100.00;101174.47;4979739;28;20030;-63
2022/03/04 07:48:27;;;;;;;2.40;2.20;;;;;;;4.61;100.00;101175.28;4976461;28;20042;-63
2022/03/04 07:50:53;;;;;;;2.13;1.92;;;;;;;4.64;100.00;101180.25;4978105;28;20034;-63
2022/03/04 07:53:18;;;;;;;2.20;1.95;;;;;;;4.60;100.00;101184.97;4970269;28;20319;-58
2022/03/04 07:55:43;;;;;;;1.88;1.75;;;;;;;4.58;100.00;101186.88;4971646;28;20041;-61
2022/03/04 07:58:09;;;;;;;3.20;2.47;;;;;;;4.57;100.00;101180.81;4972542;28;20465;-62
2022/03/04 08:00:35;;;;;;;3.60;2.67;;;;;;;4.58;100.00;101184.25;4977812;28;20489;-62
2022/03/04 08:03:01;;;;;;;3.90;2.17;;;;;;;4.60;100.00;101187.59;4979100;28;20102;-62
2022/03/04 08:05:27;;;;;;;2.17;1.65;;;;;;;4.67;100.00;101185.25;4987477;28;20128;-62
2022/03/04 08:07:52;;;;;;;1.65;1.55;;;;;;;4.71;100.00;101192.72;4971747;28;20050;-60
2022/03/04 08:10:17;;;;;;;3.45;1.27;;;;;;;4.72;100.00;101196.19;4980497;28;20034;-62
2022/03/04 08:12:43;;;;;;;1.83;1.73;;;;;;;4.72;100.00;101191.75;4982203;28;20756;-60
2022/03/04 08:15:10;;;;;;;2.50;1.65;;;;;;;4.77;100.00;101202.69;4982079;28;20041;-62
2022/03/04 08:17:37;;;;;;;0.98;0.98;;;;;;;4.76;100.00;101206.28;4978085;28;20056;-62
2022/03/04 08:20:03;;;;;;;1.90;1.80;;;;;;;4.76;100.00;101210.72;4982426;28;20359;-60
2022/03/04 08:22:29;;;;;;;1.88;1.77;;;;;;;4.79;100.00;101213.06;4984885;28;20077;-62
2022/03/04 08:24:55;;;;;;;2.42;1.42;;;;;;;4.84;100.00;101216.13;4983153;28;20034;-62
2022/03/04 08:27:21;;;;;;;1.27;1.15;;;;;;;4.86;100.00;101219.44;4983679;28;20521;-59
2022/03/04 08:29:46;;;;;;;1.83;1.73;;;;;;;4.81;100.00;101219.84;4985107;28;20027;-61
2022/03/04 08:32:12;;;;;;;2.65;1.60;;;;;;;4.80;100.00;101222.59;4977234;28;20025;-62
2022/03/04 08:34:37;;;;;;;1.90;1.60;;;;;;;4.79;100.00;101236.72;4988079;28;20065;-59
2022/03/04 08:37:03;;;;;;;1.60;1.45;;;;;;;4.76;100.00;101231.72;4992815;28;20062;-60
2022/03/04 08:39:28;;;;;;;1.95;1.73;;;;;;;4.72;100.00;101243.47;4990755;28;20484;-62
2022/03/04 08:41:53;;;;;;;2.90;1.95;;;;;;;4.71;100.00;101236.56;4986509;28;20033;-60
2022/03/04 08:44:19;;;;;;;1.75;1.65;;;;;;;4.70;100.00;101232.25;4987009;28;20113;-61
2022/03/04 08:46:44;;;;;;;2.60;1.65;;;;;;;4.68;100.00;101234.22;4992039;28;20399;-60
2022/03/04 08:49:10;;;;;;;2.35;1.52;;;;;;;4.72;100.00;101232.97;4982849;28;20068;-62
2022/03/04 08:51:37;;;;;;;4.68;1.92;;;;;;;4.74;100.00;101231.03;4995340;28;20034;-62
2022/03/04 08:54:03;;;;;;;1.73;1.58;;;;;;;4.77;100.00;101238.63;4978630;28;20128;-63
2022/03/04 08:56:29;;;;;;;1.20;1.10;;;;;;;4.84;100.00;101236.31;4998793;28;20048;-64
2022/03/04 08:58:54;;;;;;;1.80;1.40;;;;;;;4.94;100.00;101232.72;4984584;28;20484;-60
2022/03/04 09:01:20;;;;;;;1.90;1.80;;;;;;;5.07;100.00;101224.59;4987950;28;20049;-61
2022/03/04 09:03:45;;;;;;;1.33;1.23;;;;;;;5.17;100.00;101229.88;4976444;28;20073;-62
2022/03/04 09:06:11;;;;;;;1.60;1.38;;;;;;;5.22;100.00;101238.16;4988463;28;20034;-60
2022/03/04 09:08:36;;;;;;;1.90;1.08;;;;;;;5.18;100.00;101234.13;5001640;28;20381;-62
2022/03/04 09:11:01;;;;;;;1.83;1.20;;;;;;;5.16;100.00;101228.19;4994895;28;20105;-57
2022/03/04 09:13:27;;;;;;;1.17;1.05;;;;;;;5.18;100.00;101226.25;4986989;28;20045;-62
2022/03/04 09:15:52;;;;;;;1.73;1.30;;;;;;;5.17;100.00;101224.59;4994716;28;20030;-62
2022/03/04 09:18:18;;;;;;;2.00;1.48;;;;;;;5.20;100.00;101230.41;4991621;28;20631;-62
2022/03/04 09:20:43;;;;;;;1.90;1.65;;;;;;;5.22;100.00;101231.09;4999251;28;20030;-62
2022/03/04 09:23:08;;;;;;;1.92;1.40;;;;;;;5.21;100.00;101234.72;4984779;28;20049;-52
2022/03/04 09:25:34;;;;;;;1.20;1.20;;;;;;;5.25;100.00;101232.63;4991968;28;20060;-60
2022/03/04 09:28:02;;;;;;;1.33;1.27;;;;;;;5.30;100.00;101224.34;4991906;28;20034;-64
2022/03/04 09:30:27;;;;;;;1.95;1.00;;;;;;;5.29;100.00;101234.00;4993744;28;20985;-62
2022/03/04 09:32:53;;;;;;;1.35;1.13;;;;;;;5.32;100.00;101236.38;4993748;28;20034;-62
2022/03/04 09:35:18;;;;;;;2.20;2.00;;;;;;;5.30;100.00;101238.31;4992236;28;20429;-62
2022/03/04 09:37:45;;;;;;;1.33;1.23;;;;;;;5.22;100.00;101230.28;4993685;28;20074;-61
2022/03/04 09:40:10;;;;;;;6.07;3.10;;;;;;;5.17;100.00;101229.88;5013264;28;20562;-62
2022/03/04 09:42:36;;;;;;;4.00;2.85;;;;;;;5.16;100.00;101234.28;4987882;28;20039;-63
2022/03/04 09:45:03;;;;;;;1.35;1.25;;;;;;;5.14;100.00;101246.75;4991898;28;20034;-59
2022/03/04 09:47:30;;;;;;;1.80;1.70;;;;;;;5.13;100.00;101233.72;4992043;28;20042;-62
2022/03/04 09:49:55;;;;;;;1.60;1.50;;;;;;;5.18;100.00;101234.13;5000621;28;20037;-64
2022/03/04 09:52:20;;;;;;;1.90;1.70;;;;;;;5.16;100.00;101228.19;4992807;28;20036;-63
2022/03/04 09:54:47;;;;;;;2.08;1.88;;;;;;;5.22;100.00;101232.91;4990553;28;20109;-62
2022/03/04 09:57:13;;;;;;;3.15;1.70;;;;;;;5.25;100.00;101233.47;4988067;28;20546;-63
2022/03/04 09:59:38;;;;;;;3.10;2.08;;;;;;;5.25;100.00;101243.16;4997554;28;20105;-61
2022/03/04 10:02:04;;;;;;;1.60;1.50;;;;;;;5.19;100.00;101235.81;4997920;28;20554;-63
2022/03/04 10:04:31;;;;;;;2.30;1.55;;;;;;;5.16;100.00;101238.69;4991022;28;20045;-62
2022/03/04 10:06:57;;;;;;;1.27;1.15;;;;;;;5.18;100.00;101247.28;4987712;28;20040;-58
2022/03/04 10:09:45;;;;;;;2.28;1.13;;;;;;;5.20;100.00;101250.63;4997285;28;20042;-57
2022/03/04 10:12:12;;;;;;;1.80;1.70;;;;;;;5.20;100.00;101258.50;4986963;28;20739;-60
2022/03/04 10:14:55;;;;;;;1.20;1.13;;;;;;;5.18;100.00;101253.38;4992131;28;20068;-61
2022/03/04 10:17:21;;;;;;;3.88;2.75;;;;;;;5.19;100.00;101255.06;4984165;28;20036;-57
2022/03/04 10:19:57;;;;;;;3.40;1.25;;;;;;;5.16;100.00;101262.34;4994931;28;20038;-61
2022/03/04 10:22:33;;;;;;;2.28;1.55;;;;;;;5.19;100.00;101270.81;5000560;28;20076;-55
2022/03/04 10:24:59;;;;;;;1.35;1.25;;;;;;;5.25;100.00;101270.25;4982242;28;20389;-59
2022/03/04 10:27:25;;;;;;;2.47;1.75;;;;;;;5.35;100.00;101257.13;4985049;28;20034;-62
2022/03/04 10:29:50;;;;;;;2.22;1.38;;;;;;;5.37;100.00;101263.09;4994626;28;20465;-62
2022/03/04 10:32:20;;;;;;;1.55;1.45;;;;;;;5.33;100.00;101258.25;4994800;28;20030;-59
2022/03/04 10:34:58;;;;;;;1.45;1.35;;;;;;;5.35;100.00;101259.75;4990360;28;20423;-57
2022/03/04 10:37:40;;;;;;;1.55;1.45;;;;;;;5.41;100.00;101268.91;4994044;28;20395;-63
2022/03/04 10:40:15;;;;;;;2.33;1.42;;;;;;;5.40;100.00;101269.88;4991211;28;20026;-58
2022/03/04 10:42:43;;;;;;;2.22;1.50;;;;;;;5.43;100.00;101256.44;4988979;28;20057;-61
2022/03/04 10:45:11;;;;;;;1.23;1.13;;;;;;;5.43;100.00;101259.91;4990688;28;20164;-61
2022/03/04 10:47:59;;;;;;;1.23;0.95;;;;;;;5.44;100.00;101258.09;4996093;28;20085;-61
2022/03/04 10:50:32;;;;;;;1.33;1.25;;;;;;;5.44;100.00;101268.63;4990349;28;20319;-59
2022/03/04 10:53:02;;;;;;;2.60;1.02;;;;;;;5.37;100.00;101267.50;4989054;28;20038;-61
2022/03/04 10:55:40;;;;;;;1.58;1.48;;;;;;;5.29;100.00;101264.72;4986488;28;20033;-57
2022/03/04 10:58:13;;;;;;;1.02;1.00;;;;;;;5.27;100.00;101272.78;4988387;28;20034;-52
2022/03/04 11:00:42;;;;;;;1.30;1.20;;;;;;;5.27;100.00;101270.13;4992672;28;20038;-54
2022/03/04 11:03:08;;;;;;;1.10;0.95;;;;;;;5.32;100.00;101267.06;4989804;28;20041;-57
2022/03/04 11:05:34;;;;;;;1.63;1.15;;;;;;;5.40;100.00;101262.81;4986583;28;20491;-60
2022/03/04 11:08:01;;;;;;;2.55;2.10;;;;;;;5.44;100.00;101263.34;4989089;28;20030;-59
2022/03/04 11:10:26;;;;;;;2.15;1.10;;;;;;;5.45;100.00;101270.28;4992618;28;20048;-58
2022/03/04 11:12:53;;;;;;;2.42;1.15;;;;;;;5.47;100.00;101273.59;4989817;28;20026;-56
2022/03/04 11:15:21;;;;;;;1.25;0.68;;;;;;;5.45;100.00;101268.50;4989866;28;20034;-58
2022/03/04 11:17:47;;;;;;;1.38;1.23;;;;;;;5.51;100.00;101268.91;4991924;28;20109;-59
2022/03/04 11:20:14;;;;;;;2.00;0.93;;;;;;;5.46;100.00;101261.41;4995546;28;20475;-58